sensor_id;sensor_type;location;lat;lon;timestamp;pressure;altitude;pressure_sealevel;temperature;humidity
59419;BME280;45224;50.904;6.038;2023-02-19T00:00:48;100127.34;;;9.20;100.00
59419;BME280;45224;50.904;6.038;2023-02-19T00:02:18;100130.75;;;9.18;100.00
59419;BME280;45224;50.904;6.038;2023-02-19T00:03:57;100126.53;;;9.24;100.00
59419;BME280;45224;50.904;6.038;2023-02-19T00:05:28;100128.06;;;9.08;100.00
59419;BME280;45224;50.904;6.038;2023-02-19T00:06:58;100129.06;;;9.20;100.00
59419;BME280;45224;50.904;6.038;2023-02-19T00:08:30;100134.25;;;9.21;100.00
59419;BME280;45224;50.904;6.038;2023-02-19T00:10:01;100135.94;;;9.19;100.00
59419;BME280;45224;50.904;6.038;2023-02-19T00:11:33;100129.94;;;9.23;100.00
59419;BME280;45224;50.904;6.038;2023-02-19T00:13:04;100142.00;;;9.24;100.00
59419;BME280;45224;50.904;6.038;2023-02-19T00:14:34;100134.31;;;9.27;100.00
59419;BME280;45224;50.904;6.038;2023-02-19T00:16:10;100123.84;;;9.15;100.00
59419;BME280;45224;50.904;6.038;2023-02-19T00:17:41;100129.06;;;9.21;100.00
59419;BME280;45224;50.904;6.038;2023-02-19T00:19:15;100128.28;;;9.28;100.00
59419;BME280;45224;50.904;6.038;2023-02-19T00:20:45;100126.53;;;9.23;100.00
59419;BME280;45224;50.904;6.038;2023-02-19T00:22:16;100129.00;;;9.15;100.00
59419;BME280;45224;50.904;6.038;2023-02-19T00:23:54;100125.63;;;9.19;100.00
59419;BME280;45224;50.904;6.038;2023-02-19T00:25:25;100135.91;;;9.16;100.00
59419;BME280;45224;50.904;6.038;2023-02-19T00:26:55;100133.28;;;9.13;100.00
59419;BME280;45224;50.904;6.038;2023-02-19T00:28:26;100127.28;;;9.16;100.00
59419;BME280;45224;50.904;6.038;2023-02-19T00:29:56;100126.41;;;9.13;100.00
59419;BME280;45224;50.904;6.038;2023-02-19T00:31:28;100122.88;;;9.05;100.00
59419;BME280;45224;50.904;6.038;2023-02-19T00:32:59;100121.28;;;9.15;100.00
59419;BME280;45224;50.904;6.038;2023-02-19T00:34:29;100119.66;;;9.26;100.00
59419;BME280;45224;50.904;6.038;2023-02-19T00:36:01;100117.94;;;9.24;100.00
59419;BME280;45224;50.904;6.038;2023-02-19T00:37:32;100125.69;;;9.25;100.00
59419;BME280;45224;50.904;6.038;2023-02-19T00:39:04;100116.22;;;9.24;100.00
59419;BME280;45224;50.904;6.038;2023-02-19T00:40:37;100117.09;;;9.26;100.00
59419;BME280;45224;50.904;6.038;2023-02-19T00:42:07;100119.53;;;9.12;100.00
59419;BME280;45224;50.904;6.038;2023-02-19T00:43:38;100112.66;;;9.13;100.00
59419;BME280;45224;50.904;6.038;2023-02-19T00:45:08;100107.59;;;9.21;100.00
59419;BME280;45224;50.904;6.038;2023-02-19T00:46:41;100107.56;;;9.19;100.00
59419;BME280;45224;50.904;6.038;2023-02-19T00:48:13;100098.06;;;9.17;100.00
59419;BME280;45224;50.904;6.038;2023-02-19T00:49:43;100097.16;;;9.10;100.00
59419;BME280;45224;50.904;6.038;2023-02-19T00:51:14;100100.66;;;9.17;100.00
59419;BME280;45224;50.904;6.038;2023-02-19T00:52:45;100101.53;;;9.20;100.00
59419;BME280;45224;50.904;6.038;2023-02-19T00:54:15;100101.50;;;9.17;100.00
59419;BME280;45224;50.904;6.038;2023-02-19T00:55:46;100102.47;;;9.24;100.00
59419;BME280;45224;50.904;6.038;2023-02-19T00:57:17;100103.22;;;9.15;100.00
59419;BME280;45224;50.904;6.038;2023-02-19T00:58:47;100103.31;;;9.24;100.00
59419;BME280;45224;50.904;6.038;2023-02-19T01:00:18;100105.03;;;9.22;100.00
59419;BME280;45224;50.904;6.038;2023-02-19T01:01:48;100106.75;;;9.25;100.00
59419;BME280;45224;50.904;6.038;2023-02-19T01:03:19;100105.81;;;9.18;100.00
59419;BME280;45224;50.904;6.038;2023-02-19T01:04:52;100111.03;;;9.21;100.00
59419;BME280;45224;50.904;6.038;2023-02-19T01:06:22;100096.41;;;9.22;100.00
59419;BME280;45224;50.904;6.038;2023-02-19T01:07:53;100099.06;;;9.29;100.00
59419;BME280;45224;50.904;6.038;2023-02-19T01:09:23;100105.75;;;9.12;100.00
59419;BME280;45224;50.904;6.038;2023-02-19T01:10:54;100105.84;;;9.20;100.00
59419;BME280;45224;50.904;6.038;2023-02-19T01:12:24;100095.56;;;9.24;100.00
59419;BME280;45224;50.904;6.038;2023-02-19T01:13:58;100096.47;;;9.29;100.00
59419;BME280;45224;50.904;6.038;2023-02-19T01:15:31;100110.22;;;9.25;100.00
59419;BME280;45224;50.904;6.038;2023-02-19T01:17:02;100092.91;;;9.17;100.00
59419;BME280;45224;50.904;6.038;2023-02-19T01:18:34;100096.41;;;9.23;100.00
59419;BME280;45224;50.904;6.038;2023-02-19T01:20:04;100105.78;;;9.15;100.00
59419;BME280;45224;50.904;6.038;2023-02-19T01:21:35;100103.22;;;9.15;100.00
59419;BME280;45224;50.904;6.038;2023-02-19T01:23:07;100109.28;;;9.20;100.00
59419;BME280;45224;50.904;6.038;2023-02-19T01:24:38;100109.28;;;9.22;100.00
59419;BME280;45224;50.904;6.038;2023-02-19T01:26:13;100111.06;;;9.26;100.00
59419;BME280;45224;50.904;6.038;2023-02-19T01:27:44;100099.75;;;9.13;100.00
59419;BME280;45224;50.904;6.038;2023-02-19T01:29:14;100105.00;;;9.19;100.00
59419;BME280;45224;50.904;6.038;2023-02-19T01:30:45;100094.69;;;9.21;100.00
59419;BME280;45224;50.904;6.038;2023-02-19T01:32:15;100115.38;;;9.28;100.00
59419;BME280;45224;50.904;6.038;2023-02-19T01:33:48;100094.75;;;9.28;100.00
59419;BME280;45224;50.904;6.038;2023-02-19T01:35:18;100104.16;;;9.23;100.00
59419;BME280;45224;50.904;6.038;2023-02-19T01:36:49;100099.81;;;9.19;100.00
59419;BME280;45224;50.904;6.038;2023-02-19T01:38:19;100105.06;;;9.25;100.00
59419;BME280;45224;50.904;6.038;2023-02-19T01:39:50;100112.81;;;9.28;100.00
59419;BME280;45224;50.904;6.038;2023-02-19T01:41:23;100111.06;;;9.26;100.00
59419;BME280;45224;50.904;6.038;2023-02-19T01:42:54;100111.09;;;9.29;100.00
59419;BME280;45224;50.904;6.038;2023-02-19T01:45:57;100098.22;;;9.30;100.00
59419;BME280;45224;50.904;6.038;2023-02-19T01:47:28;100119.56;;;9.19;100.00
59419;BME280;45224;50.904;6.038;2023-02-19T01:49:03;100118.91;;;9.34;100.00
59419;BME280;45224;50.904;6.038;2023-02-19T01:50:39;100121.47;;;9.32;100.00
59419;BME280;45224;50.904;6.038;2023-02-19T01:52:15;100118.84;;;9.27;100.00
59419;BME280;45224;50.904;6.038;2023-02-19T01:53:53;100123.03;;;9.18;100.00
59419;BME280;45224;50.904;6.038;2023-02-19T01:55:24;100115.38;;;9.28;100.00
59419;BME280;45224;50.904;6.038;2023-02-19T01:56:56;100124.03;;;9.32;100.00
59419;BME280;45224;50.904;6.038;2023-02-19T01:58:31;100116.22;;;9.24;100.00
59419;BME280;45224;50.904;6.038;2023-02-19T02:00:06;100121.34;;;9.21;100.00
59419;BME280;45224;50.904;6.038;2023-02-19T02:01:44;100120.56;;;9.31;100.00
59419;BME280;45224;50.904;6.038;2023-02-19T02:03:15;100123.22;;;9.36;100.00
59419;BME280;45224;50.904;6.038;2023-02-19T02:04:45;100124.97;;;9.39;100.00
59419;BME280;45224;50.904;6.038;2023-02-19T02:06:22;100125.81;;;9.38;100.00
59419;BME280;45224;50.904;6.038;2023-02-19T02:07:53;100107.75;;;9.38;100.00
59419;BME280;45224;50.904;6.038;2023-02-19T02:09:42;100108.59;;;9.34;100.00
59419;BME280;45224;50.904;6.038;2023-02-19T02:11:31;100113.66;;;9.27;100.00
59419;BME280;45224;50.904;6.038;2023-02-19T02:13:02;100124.00;;;9.27;100.00
59419;BME280;45224;50.904;6.038;2023-02-19T02:14:35;100122.28;;;9.29;100.00
59419;BME280;45224;50.904;6.038;2023-02-19T02:18:04;100119.66;;;9.25;100.00
59419;BME280;45224;50.904;6.038;2023-02-19T02:21:22;100130.03;;;9.31;100.00
59419;BME280;45224;50.904;6.038;2023-02-19T02:23:08;100127.41;;;9.26;100.00
59419;BME280;45224;50.904;6.038;2023-02-19T02:26:58;100120.66;;;9.38;100.00
59419;BME280;45224;50.904;6.038;2023-02-19T02:32:24;100118.81;;;9.26;100.00
59419;BME280;45224;50.904;6.038;2023-02-19T02:34:16;100114.50;;;9.26;100.00
59419;BME280;45224;50.904;6.038;2023-02-19T02:35:52;100123.91;;;9.21;100.00
59419;BME280;45224;50.904;6.038;2023-02-19T02:37:27;100124.00;;;9.27;100.00
59419;BME280;45224;50.904;6.038;2023-02-19T02:39:02;100119.72;;;9.31;100.00
59419;BME280;45224;50.904;6.038;2023-02-19T02:40:37;100120.53;;;9.25;100.00
59419;BME280;45224;50.904;6.038;2023-02-19T02:42:11;100115.38;;;9.28;100.00
59419;BME280;45224;50.904;6.038;2023-02-19T02:44:07;100119.69;;;9.28;100.00
59419;BME280;45224;50.904;6.038;2023-02-19T02:45:39;100125.72;;;9.31;100.00
59419;BME280;45224;50.904;6.038;2023-02-19T02:47:26;100130.06;;;9.32;100.00
59419;BME280;45224;50.904;6.038;2023-02-19T02:49:18;100134.28;;;9.24;100.00
59419;BME280;45224;50.904;6.038;2023-02-19T02:52:49;100134.31;;;9.27;100.00
59419;BME280;45224;50.904;6.038;2023-02-19T02:54:40;100125.69;;;9.28;100.00
59419;BME280;45224;50.904;6.038;2023-02-19T02:56:29;100128.31;;;9.31;100.00
59419;BME280;45224;50.904;6.038;2023-02-19T02:58:00;100130.91;;;9.31;100.00
59419;BME280;45224;50.904;6.038;2023-02-19T02:59:34;100130.00;;;9.26;100.00
59419;BME280;45224;50.904;6.038;2023-02-19T03:01:10;100135.97;;;9.22;100.00
59419;BME280;45224;50.904;6.038;2023-02-19T03:02:59;100140.28;;;9.23;100.00
59419;BME280;45224;50.904;6.038;2023-02-19T03:06:35;100141.16;;;9.22;100.00
59419;BME280;45224;50.904;6.038;2023-02-19T03:08:09;100138.59;;;9.28;100.00
59419;BME280;45224;50.904;6.038;2023-02-19T03:09:43;100140.38;;;9.32;100.00
59419;BME280;45224;50.904;6.038;2023-02-19T03:11:14;100140.38;;;9.32;100.00
59419;BME280;45224;50.904;6.038;2023-02-19T03:13:07;100130.75;;;9.16;100.00
59419;BME280;45224;50.904;6.038;2023-02-19T03:15:04;100141.16;;;9.22;100.00
59419;BME280;45224;50.904;6.038;2023-02-19T03:17:28;100129.91;;;9.19;100.00
59419;BME280;45224;50.904;6.038;2023-02-19T03:19:21;100144.59;;;9.24;100.00
59419;BME280;45224;50.904;6.038;2023-02-19T03:20:57;100140.31;;;9.26;100.00
59419;BME280;45224;50.904;6.038;2023-02-19T03:22:33;100148.09;;;9.31;100.00
59419;BME280;45224;50.904;6.038;2023-02-19T03:24:07;100139.28;;;9.12;100.00
59419;BME280;45224;50.904;6.038;2023-02-19T03:25:58;100146.25;;;9.19;100.00
59419;BME280;45224;50.904;6.038;2023-02-19T03:27:43;100141.97;;;9.20;100.00
59419;BME280;45224;50.904;6.038;2023-02-19T03:29:17;100147.16;;;9.23;100.00
59419;BME280;45224;50.904;6.038;2023-02-19T03:30:58;100142.00;;;9.24;100.00
59419;BME280;45224;50.904;6.038;2023-02-19T03:32:37;100148.00;;;9.23;100.00
59419;BME280;45224;50.904;6.038;2023-02-19T03:34:15;100155.78;;;9.25;100.00
59419;BME280;45224;50.904;6.038;2023-02-19T03:35:51;100154.88;;;9.21;100.00
59419;BME280;45224;50.904;6.038;2023-02-19T03:37:31;100163.50;;;9.23;100.00
59419;BME280;45224;50.904;6.038;2023-02-19T03:39:06;100158.28;;;9.20;100.00
59419;BME280;45224;50.904;6.038;2023-02-19T03:44:16;100161.75;;;9.19;100.00
59419;BME280;45224;50.904;6.038;2023-02-19T03:47:25;100160.13;;;9.27;100.00
59419;BME280;45224;50.904;6.038;2023-02-19T03:49:24;100165.28;;;9.29;100.00
59419;BME280;45224;50.904;6.038;2023-02-19T03:54:17;100161.69;;;9.14;100.00
59419;BME280;45224;50.904;6.038;2023-02-19T03:56:12;100168.66;;;9.25;100.00
59419;BME280;45224;50.904;6.038;2023-02-19T03:58:13;100176.38;;;9.22;100.00
59419;BME280;45224;50.904;6.038;2023-02-19T03:59:55;100168.69;;;9.26;100.00
59419;BME280;45224;50.904;6.038;2023-02-19T04:01:43;100164.38;;;9.24;100.00
59419;BME280;45224;50.904;6.038;2023-02-19T04:03:35;100166.91;;;9.21;100.00
59419;BME280;45224;50.904;6.038;2023-02-19T04:05:22;100176.47;;;9.29;100.00
59419;BME280;45224;50.904;6.038;2023-02-19T04:06:55;100168.72;;;9.29;100.00
59419;BME280;45224;50.904;6.038;2023-02-19T04:08:27;100176.50;;;9.31;100.00
59419;BME280;45224;50.904;6.038;2023-02-19T04:10:06;100180.78;;;9.29;100.00
59419;BME280;45224;50.904;6.038;2023-02-19T04:11:42;100180.72;;;9.24;100.00
59419;BME280;45224;50.904;6.038;2023-02-19T04:13:35;100178.94;;;9.20;100.00
59419;BME280;45224;50.904;6.038;2023-02-19T04:15:14;100182.47;;;9.25;100.00
59419;BME280;45224;50.904;6.038;2023-02-19T04:16:51;100190.19;;;9.24;100.00
59419;BME280;45224;50.904;6.038;2023-02-19T04:18:28;100194.50;;;9.28;100.00
59419;BME280;45224;50.904;6.038;2023-02-19T04:20:02;100201.41;;;9.27;100.00
59419;BME280;45224;50.904;6.038;2023-02-19T04:21:35;100199.63;;;9.23;100.00
59419;BME280;45224;50.904;6.038;2023-02-19T04:23:07;100200.47;;;9.22;100.00
59419;BME280;45224;50.904;6.038;2023-02-19T04:24:42;100212.44;;;9.19;100.00
59419;BME280;45224;50.904;6.038;2023-02-19T04:26:16;100221.91;;;9.18;100.00
59419;BME280;45224;50.904;6.038;2023-02-19T04:27:49;100215.03;;;9.19;100.00
59419;BME280;45224;50.904;6.038;2023-02-19T04:29:19;100209.06;;;9.21;100.00
59419;BME280;45224;50.904;6.038;2023-02-19T04:30:50;100211.59;;;9.18;100.00
59419;BME280;45224;50.904;6.038;2023-02-19T04:32:20;100218.50;;;9.19;100.00
59419;BME280;45224;50.904;6.038;2023-02-19T04:33:51;100216.72;;;9.15;100.00
59419;BME280;45224;50.904;6.038;2023-02-19T04:35:21;100224.47;;;9.17;100.00
59419;BME280;45224;50.904;6.038;2023-02-19T04:36:52;100218.34;;;9.07;100.00
59419;BME280;45224;50.904;6.038;2023-02-19T04:38:22;100220.16;;;9.14;100.00
59419;BME280;45224;50.904;6.038;2023-02-19T04:39:53;100221.03;;;9.16;100.00
59419;BME280;45224;50.904;6.038;2023-02-19T04:41:24;100220.16;;;9.14;100.00
59419;BME280;45224;50.904;6.038;2023-02-19T04:42:54;100209.81;;;9.12;100.00
59419;BME280;45224;50.904;6.038;2023-02-19T04:44:24;100227.03;;;9.15;100.00
59419;BME280;45224;50.904;6.038;2023-02-19T04:45:59;100221.06;;;9.18;100.00
59419;BME280;45224;50.904;6.038;2023-02-19T04:47:31;100229.56;;;9.12;100.00
59419;BME280;45224;50.904;6.038;2023-02-19T04:49:01;100227.09;;;9.20;100.00
59419;BME280;45224;50.904;6.038;2023-02-19T04:50:32;100242.31;;;9.00;100.00
59419;BME280;45224;50.904;6.038;2023-02-19T04:52:03;100226.84;;;9.00;100.00
59419;BME280;45224;50.904;6.038;2023-02-19T04:53:34;100232.06;;;9.06;100.00
59419;BME280;45224;50.904;6.038;2023-02-19T04:55:06;100235.50;;;9.03;100.00
59419;BME280;45224;50.904;6.038;2023-02-19T04:56:36;100239.88;;;9.10;100.00
59419;BME280;45224;50.904;6.038;2023-02-19T04:58:07;100237.22;;;9.06;100.00
59419;BME280;45224;50.904;6.038;2023-02-19T04:59:37;100238.09;;;9.05;100.00
59419;BME280;45224;50.904;6.038;2023-02-19T05:01:08;100231.28;;;9.10;100.00
59419;BME280;45224;50.904;6.038;2023-02-19T05:02:39;100239.91;;;9.13;100.00
59419;BME280;45224;50.904;6.038;2023-02-19T05:04:10;100230.25;;;8.99;100.00
59419;BME280;45224;50.904;6.038;2023-02-19T05:05:40;100245.00;;;9.09;100.00
59419;BME280;45224;50.904;6.038;2023-02-19T05:07:11;100241.41;;;8.98;100.00
59419;BME280;45224;50.904;6.038;2023-02-19T05:08:41;100244.09;;;9.04;100.00
59419;BME280;45224;50.904;6.038;2023-02-19T05:10:12;100256.09;;;9.02;100.00
59419;BME280;45224;50.904;6.038;2023-02-19T05:11:42;100261.13;;;8.92;100.00
59419;BME280;45224;50.904;6.038;2023-02-19T05:13:12;100250.03;;;8.98;100.00
59419;BME280;45224;50.904;6.038;2023-02-19T05:14:43;100263.03;;;9.07;100.00
59419;BME280;45224;50.904;6.038;2023-02-19T05:16:14;100258.78;;;9.09;100.00
59419;BME280;45224;50.904;6.038;2023-02-19T05:17:45;100258.59;;;8.97;100.00
59419;BME280;45224;50.904;6.038;2023-02-19T05:19:16;100261.28;;;9.03;100.00
59419;BME280;45224;50.904;6.038;2023-02-19T05:20:47;100271.56;;;9.02;100.00
59419;BME280;45224;50.904;6.038;2023-02-19T05:22:17;100266.38;;;8.99;100.00
59419;BME280;45224;50.904;6.038;2023-02-19T05:23:48;100262.97;;;9.00;100.00
59419;BME280;45224;50.904;6.038;2023-02-19T05:25:18;100271.47;;;8.95;100.00
59419;BME280;45224;50.904;6.038;2023-02-19T05:26:49;100270.44;;;8.83;100.00
59419;BME280;45224;50.904;6.038;2023-02-19T05:28:20;100268.84;;;8.92;100.00
59419;BME280;45224;50.904;6.038;2023-02-19T05:29:57;100274.13;;;9.00;100.00
59419;BME280;45224;50.904;6.038;2023-02-19T05:31:28;100274.16;;;9.02;100.00
59419;BME280;45224;50.904;6.038;2023-02-19T05:32:58;100275.03;;;9.04;100.00
59419;BME280;45224;50.904;6.038;2023-02-19T05:34:29;100279.31;;;9.02;100.00
59419;BME280;45224;50.904;6.038;2023-02-19T05:36:06;100281.78;;;8.95;100.00
59419;BME280;45224;50.904;6.038;2023-02-19T05:37:37;100290.28;;;8.87;100.00
59419;BME280;45224;50.904;6.038;2023-02-19T05:39:10;100286.94;;;8.94;100.00
59419;BME280;45224;50.904;6.038;2023-02-19T05:40:41;100290.41;;;8.98;100.00
59419;BME280;45224;50.904;6.038;2023-02-19T05:42:13;100298.06;;;8.93;100.00
59419;BME280;45224;50.904;6.038;2023-02-19T05:43:45;100298.97;;;8.93;100.00
59419;BME280;45224;50.904;6.038;2023-02-19T05:45:16;100302.22;;;8.82;100.00
59419;BME280;45224;50.904;6.038;2023-02-19T05:46:46;100303.09;;;8.82;100.00
59419;BME280;45224;50.904;6.038;2023-02-19T05:48:17;100297.06;;;8.83;100.00
59419;BME280;45224;50.904;6.038;2023-02-19T05:49:47;100304.03;;;8.87;100.00
59419;BME280;45224;50.904;6.038;2023-02-19T05:51:20;100296.25;;;8.86;100.00
59419;BME280;45224;50.904;6.038;2023-02-19T05:52:51;100304.13;;;8.93;100.00
59419;BME280;45224;50.904;6.038;2023-02-19T05:54:27;100304.91;;;8.89;100.00
59419;BME280;45224;50.904;6.038;2023-02-19T05:55:57;100305.81;;;8.93;100.00
59419;BME280;45224;50.904;6.038;2023-02-19T05:57:28;100306.69;;;8.92;100.00
59419;BME280;45224;50.904;6.038;2023-02-19T05:59:02;100304.88;;;8.88;100.00
59419;BME280;45224;50.904;6.038;2023-02-19T06:00:33;100295.41;;;8.85;100.00
59419;BME280;45224;50.904;6.038;2023-02-19T06:02:04;100295.47;;;8.88;100.00
59419;BME280;45224;50.904;6.038;2023-02-19T06:03:34;100297.28;;;8.95;100.00
59419;BME280;45224;50.904;6.038;2023-02-19T06:05:05;100310.97;;;8.91;100.00
59419;BME280;45224;50.904;6.038;2023-02-19T06:06:36;100304.06;;;8.90;100.00
59419;BME280;45224;50.904;6.038;2023-02-19T06:08:06;100301.50;;;8.90;100.00
59419;BME280;45224;50.904;6.038;2023-02-19T06:09:37;100309.28;;;8.93;100.00
59419;BME280;45224;50.904;6.038;2023-02-19T06:11:08;100304.91;;;8.89;100.00
59419;BME280;45224;50.904;6.038;2023-02-19T06:12:38;100306.59;;;8.87;100.00
59419;BME280;45224;50.904;6.038;2023-02-19T06:14:11;100305.84;;;8.94;100.00
59419;BME280;45224;50.904;6.038;2023-02-19T06:15:42;100300.69;;;8.94;100.00
59419;BME280;45224;50.904;6.038;2023-02-19T06:17:13;100308.50;;;8.99;100.00
59419;BME280;45224;50.904;6.038;2023-02-19T06:18:44;100313.66;;;9.01;100.00
59419;BME280;45224;50.904;6.038;2023-02-19T06:20:15;100307.63;;;8.99;100.00
59419;BME280;45224;50.904;6.038;2023-02-19T06:21:49;100313.47;;;8.87;100.00
59419;BME280;45224;50.904;6.038;2023-02-19T06:23:19;100304.88;;;8.88;100.00
59419;BME280;45224;50.904;6.038;2023-02-19T06:24:49;100310.94;;;8.88;100.00
59419;BME280;45224;50.904;6.038;2023-02-19T06:26:22;100311.75;;;8.86;100.00
59419;BME280;45224;50.904;6.038;2023-02-19T06:27:53;100317.00;;;8.92;100.00
59419;BME280;45224;50.904;6.038;2023-02-19T06:29:24;100317.81;;;8.89;100.00
59419;BME280;45224;50.904;6.038;2023-02-19T06:30:54;100309.09;;;8.81;100.00
59419;BME280;45224;50.904;6.038;2023-02-19T06:32:27;100316.97;;;8.90;100.00
59419;BME280;45224;50.904;6.038;2023-02-19T06:33:57;100323.06;;;8.95;100.00
59419;BME280;45224;50.904;6.038;2023-02-19T06:35:28;100320.50;;;8.97;100.00
59419;BME280;45224;50.904;6.038;2023-02-19T06:36:59;100314.50;;;8.97;100.00
59419;BME280;45224;50.904;6.038;2023-02-19T06:38:30;100321.28;;;8.93;100.00
59419;BME280;45224;50.904;6.038;2023-02-19T06:40:00;100325.53;;;8.89;100.00
59419;BME280;45224;50.904;6.038;2023-02-19T06:41:31;100318.72;;;8.93;100.00
59419;BME280;45224;50.904;6.038;2023-02-19T06:43:01;100325.63;;;8.95;100.00
59419;BME280;45224;50.904;6.038;2023-02-19T06:44:32;100326.53;;;8.98;100.00
59419;BME280;45224;50.904;6.038;2023-02-19T06:46:05;100325.44;;;8.83;100.00
59419;BME280;45224;50.904;6.038;2023-02-19T06:47:36;100326.44;;;8.91;100.00
59419;BME280;45224;50.904;6.038;2023-02-19T06:49:07;100340.03;;;8.81;100.00
59419;BME280;45224;50.904;6.038;2023-02-19T06:50:38;100337.63;;;8.92;100.00
59419;BME280;45224;50.904;6.038;2023-02-19T06:52:08;100336.75;;;8.91;100.00
59419;BME280;45224;50.904;6.038;2023-02-19T06:53:39;100338.34;;;8.85;100.00
59419;BME280;45224;50.904;6.038;2023-02-19T06:55:09;100339.25;;;8.85;100.00
59419;BME280;45224;50.904;6.038;2023-02-19T06:56:40;100345.19;;;8.81;100.00
59419;BME280;45224;50.904;6.038;2023-02-19T06:58:11;100353.03;;;8.89;100.00
59419;BME280;45224;50.904;6.038;2023-02-19T06:59:41;100351.38;;;8.92;100.00
59419;BME280;45224;50.904;6.038;2023-02-19T07:01:12;100355.66;;;8.90;100.00
59419;BME280;45224;50.904;6.038;2023-02-19T07:02:42;100354.00;;;8.95;100.00
59419;BME280;45224;50.904;6.038;2023-02-19T07:04:13;100358.34;;;8.97;100.00
59419;BME280;45224;50.904;6.038;2023-02-19T07:05:43;100360.91;;;8.97;100.00
59419;BME280;45224;50.904;6.038;2023-02-19T07:07:14;100365.09;;;8.90;100.00
59419;BME280;45224;50.904;6.038;2023-02-19T07:08:44;100367.69;;;8.93;100.00
59419;BME280;45224;50.904;6.038;2023-02-19T07:10:15;100368.53;;;8.90;100.00
59419;BME280;45224;50.904;6.038;2023-02-19T07:11:46;100371.97;;;8.91;100.00
59419;BME280;45224;50.904;6.038;2023-02-19T07:13:16;100369.44;;;8.92;100.00
59419;BME280;45224;50.904;6.038;2023-02-19T07:14:46;100379.75;;;8.94;100.00
59419;BME280;45224;50.904;6.038;2023-02-19T07:16:17;100382.28;;;8.91;100.00
59419;BME280;45224;50.904;6.038;2023-02-19T07:17:48;100380.59;;;8.91;100.00
59419;BME280;45224;50.904;6.038;2023-02-19T07:19:18;100390.13;;;8.95;100.00
59419;BME280;45224;50.904;6.038;2023-02-19T07:20:48;100391.75;;;8.90;100.00
59419;BME280;45224;50.904;6.038;2023-02-19T07:22:19;100389.16;;;8.89;100.00
59419;BME280;45224;50.904;6.038;2023-02-19T07:23:49;100388.28;;;8.88;100.00
59419;BME280;45224;50.904;6.038;2023-02-19T07:25:20;100397.75;;;8.89;100.00
59419;BME280;45224;50.904;6.038;2023-02-19T07:26:51;100392.56;;;8.88;100.00
59419;BME280;45224;50.904;6.038;2023-02-19T07:28:21;100400.31;;;8.89;100.00
59419;BME280;45224;50.904;6.038;2023-02-19T07:29:51;100406.31;;;8.87;100.00
59419;BME280;45224;50.904;6.038;2023-02-19T07:31:23;100406.38;;;8.90;100.00
59419;BME280;45224;50.904;6.038;2023-02-19T07:32:53;100406.38;;;8.90;100.00
59419;BME280;45224;50.904;6.038;2023-02-19T07:34:24;100414.81;;;8.83;100.00
59419;BME280;45224;50.904;6.038;2023-02-19T07:35:54;100417.59;;;8.93;100.00
59419;BME280;45224;50.904;6.038;2023-02-19T07:37:25;100412.44;;;8.93;100.00
59419;BME280;45224;50.904;6.038;2023-02-19T07:38:58;100409.88;;;8.95;100.00
59419;BME280;45224;50.904;6.038;2023-02-19T07:40:29;100411.63;;;8.98;100.00
59419;BME280;45224;50.904;6.038;2023-02-19T07:41:59;100415.94;;;8.99;100.00
59419;BME280;45224;50.904;6.038;2023-02-19T07:43:33;100399.50;;;8.92;100.00
59419;BME280;45224;50.904;6.038;2023-02-19T07:45:04;100414.16;;;8.94;100.00
59419;BME280;45224;50.904;6.038;2023-02-19T07:46:34;100421.84;;;8.90;100.00
59419;BME280;45224;50.904;6.038;2023-02-19T07:48:05;100423.53;;;8.89;100.00
59419;BME280;45224;50.904;6.038;2023-02-19T07:49:35;100433.13;;;8.97;100.00
59419;BME280;45224;50.904;6.038;2023-02-19T07:51:07;100427.16;;;9.01;100.00
59419;BME280;45224;50.904;6.038;2023-02-19T07:52:39;100437.34;;;8.91;100.00
59419;BME280;45224;50.904;6.038;2023-02-19T07:54:09;100429.59;;;8.91;100.00
59419;BME280;45224;50.904;6.038;2023-02-19T07:55:40;100436.47;;;8.92;100.00
59419;BME280;45224;50.904;6.038;2023-02-19T07:57:11;100425.38;;;8.97;100.00
59419;BME280;45224;50.904;6.038;2023-02-19T07:58:41;100421.09;;;8.97;100.00
59419;BME280;45224;50.904;6.038;2023-02-19T08:00:12;100429.53;;;8.88;100.00
59419;BME280;45224;50.904;6.038;2023-02-19T08:01:43;100436.59;;;8.99;100.00
59419;BME280;45224;50.904;6.038;2023-02-19T08:03:32;100450.44;;;9.04;100.00
59419;BME280;45224;50.904;6.038;2023-02-19T08:05:03;100448.72;;;9.06;100.00
59419;BME280;45224;50.904;6.038;2023-02-19T08:06:34;100452.28;;;9.11;100.00
59419;BME280;45224;50.904;6.038;2023-02-19T08:08:09;100454.78;;;9.06;100.00
59419;BME280;45224;50.904;6.038;2023-02-19T08:09:40;100448.72;;;9.06;100.00
59419;BME280;45224;50.904;6.038;2023-02-19T08:11:11;100449.66;;;9.08;100.00
59419;BME280;45224;50.904;6.038;2023-02-19T08:13:00;100456.47;;;9.06;100.00
59419;BME280;45224;50.904;6.038;2023-02-19T08:14:49;100458.25;;;9.08;100.00
59419;BME280;45224;50.904;6.038;2023-02-19T08:16:20;100474.38;;;8.97;100.00
59419;BME280;45224;50.904;6.038;2023-02-19T08:17:51;100461.53;;;8.98;100.00
59419;BME280;45224;50.904;6.038;2023-02-19T08:19:21;100467.44;;;8.92;100.00
59419;BME280;45224;50.904;6.038;2023-02-19T08:20:53;100464.94;;;8.97;100.00
59419;BME280;45224;50.904;6.038;2023-02-19T08:22:24;100483.97;;;9.05;100.00
59419;BME280;45224;50.904;6.038;2023-02-19T08:23:54;100476.28;;;9.08;100.00
59419;BME280;45224;50.904;6.038;2023-02-19T08:25:25;100481.50;;;9.10;100.00
59419;BME280;45224;50.904;6.038;2023-02-19T08:26:55;100491.81;;;9.10;100.00
59419;BME280;45224;50.904;6.038;2023-02-19T08:28:26;100480.59;;;9.08;100.00
59419;BME280;45224;50.904;6.038;2023-02-19T08:29:56;100491.81;;;9.10;100.00
59419;BME280;45224;50.904;6.038;2023-02-19T08:31:27;100486.66;;;9.10;100.00
59419;BME280;45224;50.904;6.038;2023-02-19T08:32:59;100489.09;;;9.02;100.00